createdAt,value
2018-05-13T00:00:09.888Z,18.30
2018-05-13T00:02:35.776Z,19.20
2018-05-13T00:05:01.647Z,17.77
2018-05-13T00:07:27.548Z,19.00
2018-05-13T00:09:54.364Z,18.80
2018-05-13T00:12:20.232Z,18.80
2018-05-13T00:14:46.084Z,17.97
2018-05-13T00:17:11.901Z,18.63
2018-05-13T00:19:37.768Z,18.00
2018-05-13T00:22:03.648Z,17.90
2018-05-13T00:24:29.504Z,18.87
2018-05-13T00:26:55.358Z,18.90
2018-05-13T00:29:21.751Z,19.00
2018-05-13T00:31:47.629Z,18.63
2018-05-13T00:34:13.446Z,19.43
2018-05-13T00:36:39.313Z,17.00
2018-05-13T00:39:05.201Z,18.43
2018-05-13T00:41:31.091Z,18.17
2018-05-13T00:43:56.926Z,16.73
2018-05-13T00:46:22.803Z,18.40
2018-05-13T00:48:48.668Z,18.37
2018-05-13T00:51:14.518Z,16.70
2018-05-13T00:53:40.356Z,18.13
2018-05-13T00:56:06.213Z,17.17
2018-05-13T00:58:32.046Z,18.90
2018-05-13T01:00:57.889Z,18.03
2018-05-13T01:03:23.736Z,17.93
2018-05-13T01:05:49.574Z,18.17
2018-05-13T01:08:15.420Z,18.30
2018-05-13T01:10:41.271Z,17.87
2018-05-13T01:13:07.156Z,18.30
2018-05-13T01:15:33.018Z,17.70
2018-05-13T01:17:58.897Z,18.23
2018-05-13T01:20:24.753Z,22.73
2018-05-13T01:22:50.590Z,17.03
2018-05-13T01:25:16.460Z,18.07
2018-05-13T01:27:42.296Z,17.67
2018-05-13T01:30:08.148Z,16.43
2018-05-13T01:32:34.001Z,16.53
2018-05-13T01:34:59.865Z,18.90
2018-05-13T01:37:25.720Z,17.10
2018-05-13T01:39:51.593Z,17.07
2018-05-13T01:42:17.485Z,16.20
2018-05-13T01:44:43.376Z,16.93
2018-05-13T01:47:09.260Z,17.17
2018-05-13T01:49:35.108Z,15.10
2018-05-13T01:52:00.977Z,17.40
2018-05-13T01:54:26.813Z,16.30
2018-05-13T01:56:52.677Z,15.73
2018-05-13T01:59:18.508Z,15.53
2018-05-13T02:01:44.382Z,17.83
2018-05-13T02:04:10.781Z,17.00
2018-05-13T02:06:36.669Z,17.30
2018-05-13T02:09:03.628Z,18.57
2018-05-13T02:11:29.547Z,17.57
2018-05-13T02:13:55.397Z,16.40
2018-05-13T02:16:21.220Z,17.90
2018-05-13T02:18:47.889Z,18.03
2018-05-13T02:21:13.750Z,18.37
2018-05-13T02:23:39.594Z,20.43
2018-05-13T02:26:05.471Z,17.43
2018-05-13T02:28:31.364Z,16.43
2018-05-13T02:30:57.205Z,18.23
2018-05-13T02:33:23.070Z,18.77
2018-05-13T02:35:48.896Z,17.13
2018-05-13T02:38:14.736Z,16.43
2018-05-13T02:40:40.559Z,16.03
2018-05-13T02:43:06.444Z,14.90
2018-05-13T02:45:32.313Z,18.50
2018-05-13T02:47:58.170Z,17.87
2018-05-13T02:50:24.019Z,15.87
2018-05-13T02:52:49.890Z,15.77
2018-05-13T02:55:15.764Z,15.03
2018-05-13T02:57:41.633Z,15.10
2018-05-13T03:00:07.484Z,16.90
2018-05-13T03:02:33.309Z,15.63
2018-05-13T03:04:59.368Z,15.87
2018-05-13T03:07:25.224Z,16.13
2018-05-13T03:09:51.066Z,16.20
2018-05-13T03:12:16.929Z,16.03
2018-05-13T03:14:42.829Z,16.40
2018-05-13T03:17:09.621Z,13.80
2018-05-13T03:19:35.491Z,15.10
2018-05-13T03:22:01.339Z,14.83
2018-05-13T03:24:27.232Z,15.87
2018-05-13T03:26:53.082Z,16.03
2018-05-13T03:29:18.913Z,15.20
2018-05-13T03:31:44.750Z,15.93
2018-05-13T03:34:10.600Z,16.33
2018-05-13T03:36:36.440Z,16.37
2018-05-13T03:39:02.384Z,16.80
2018-05-13T03:41:28.245Z,15.70
2018-05-13T03:43:54.117Z,16.00
2018-05-13T03:46:20.049Z,17.10
2018-05-13T03:48:45.850Z,16.80
2018-05-13T03:51:11.761Z,15.27
2018-05-13T03:53:37.593Z,15.73
2018-05-13T03:56:03.416Z,15.70
2018-05-13T03:58:29.234Z,14.93
2018-05-13T04:00:55.100Z,16.07
2018-05-13T04:03:21.653Z,16.17
2018-05-13T04:05:47.545Z,15.90
2018-05-13T04:11:38.612Z,16.13
2018-05-13T04:14:16.958Z,18.60
2018-05-13T04:16:42.830Z,16.07
2018-05-13T04:19:08.699Z,15.77
2018-05-13T04:21:34.542Z,16.03
2018-05-13T04:24:00.378Z,21.20
2018-05-13T04:26:26.271Z,15.80
2018-05-13T04:28:52.125Z,16.17
2018-05-13T04:31:17.978Z,14.57
2018-05-13T04:33:43.817Z,14.53
2018-05-13T04:36:09.641Z,15.27
2018-05-13T04:38:35.512Z,16.13
2018-05-13T04:41:01.338Z,16.03
2018-05-13T04:43:27.252Z,14.50
2018-05-13T04:45:53.124Z,16.80
2018-05-13T04:48:18.993Z,15.60
2018-05-13T04:50:44.863Z,15.50
2018-05-13T04:53:10.745Z,16.40
2018-05-13T04:55:36.605Z,16.33
2018-05-13T04:58:02.488Z,17.33
2018-05-13T05:00:28.397Z,17.20
2018-05-13T05:02:54.258Z,17.13
2018-05-13T05:05:20.124Z,16.20
2018-05-13T05:07:45.989Z,19.17
2018-05-13T05:10:11.845Z,19.20
2018-05-13T05:12:37.684Z,16.43
2018-05-13T05:15:03.582Z,17.70
2018-05-13T05:17:29.452Z,18.20
2018-05-13T05:19:55.372Z,17.33
2018-05-13T05:22:21.217Z,17.33
2018-05-13T05:24:47.058Z,18.47
2018-05-13T05:27:12.881Z,17.90
2018-05-13T05:29:38.738Z,18.57
2018-05-13T05:32:04.585Z,16.70
2018-05-13T05:34:30.483Z,18.53
2018-05-13T05:36:56.366Z,17.97
2018-05-13T05:39:22.201Z,19.20
2018-05-13T05:41:48.141Z,20.23
2018-05-13T05:44:13.986Z,21.10
2018-05-13T05:46:39.916Z,18.90
2018-05-13T05:49:05.780Z,20.00
2018-05-13T05:51:31.621Z,19.10
2018-05-13T05:53:57.476Z,17.23
2018-05-13T05:56:23.366Z,18.40
2018-05-13T05:58:49.324Z,19.30
2018-05-13T06:01:15.190Z,21.93
2018-05-13T06:03:41.040Z,18.67
2018-05-13T06:06:06.873Z,16.57
2018-05-13T06:08:32.701Z,19.20
2018-05-13T06:10:58.544Z,17.33
2018-05-13T06:13:24.401Z,17.70
2018-05-13T06:15:50.286Z,18.47
2018-05-13T06:18:16.145Z,17.43
2018-05-13T06:20:42.027Z,17.37
2018-05-13T06:23:07.884Z,17.87
2018-05-13T06:25:33.732Z,18.37
2018-05-13T06:27:59.600Z,15.03
2018-05-13T06:30:25.493Z,16.70
2018-05-13T06:32:51.343Z,16.20
2018-05-13T06:35:17.239Z,16.00
2018-05-13T06:37:43.133Z,18.70
2018-05-13T06:40:08.997Z,16.60
2018-05-13T06:42:34.853Z,18.00
2018-05-13T06:45:00.733Z,16.83
2018-05-13T06:47:26.597Z,15.80
2018-05-13T06:49:52.453Z,15.43
2018-05-13T06:52:18.313Z,13.63
2018-05-13T06:54:44.153Z,15.17
2018-05-13T06:57:10.286Z,13.87
2018-05-13T06:59:36.133Z,15.17
2018-05-13T07:02:01.985Z,13.17
2018-05-13T07:04:27.836Z,12.30
2018-05-13T07:06:53.714Z,13.03
2018-05-13T07:09:19.580Z,13.73
2018-05-13T07:11:45.416Z,12.57
2018-05-13T07:14:11.268Z,13.33
2018-05-13T07:16:37.125Z,13.60
2018-05-13T07:19:02.984Z,12.73
2018-05-13T07:21:28.833Z,12.03
2018-05-13T07:23:54.653Z,11.00
2018-05-13T07:26:20.481Z,11.13
2018-05-13T07:28:46.355Z,12.57
2018-05-13T07:31:12.154Z,11.07
2018-05-13T07:33:38.000Z,10.90
2018-05-13T07:36:03.833Z,10.40
2018-05-13T07:38:29.720Z,10.97
2018-05-13T07:40:55.608Z,10.67
2018-05-13T07:43:21.566Z,11.37
2018-05-13T07:45:47.385Z,10.27
2018-05-13T07:48:13.260Z,10.00
2018-05-13T07:50:39.113Z,12.00
2018-05-13T07:53:04.980Z,11.23
2018-05-13T07:55:30.870Z,11.53
2018-05-13T07:57:56.730Z,11.77
2018-05-13T08:00:22.576Z,11.50
2018-05-13T08:02:48.471Z,10.23
2018-05-13T08:05:14.320Z,10.47
2018-05-13T08:07:40.144Z,11.73
2018-05-13T08:10:06.000Z,12.27
2018-05-13T08:12:31.844Z,11.10
2018-05-13T08:14:57.713Z,11.57
2018-05-13T08:17:23.569Z,12.10
2018-05-13T08:19:49.384Z,13.00
2018-05-13T08:22:15.243Z,11.97
2018-05-13T08:24:41.118Z,11.90
2018-05-13T08:27:06.985Z,10.87
2018-05-13T08:29:32.825Z,13.73
2018-05-13T08:31:58.688Z,11.57
2018-05-13T08:34:24.522Z,11.23
2018-05-13T08:36:50.390Z,12.80
2018-05-13T08:39:16.231Z,11.63
2018-05-13T08:41:42.084Z,13.27
2018-05-13T08:44:07.920Z,12.67
2018-05-13T08:46:33.751Z,11.57
2018-05-13T08:48:59.605Z,12.43
2018-05-13T08:51:25.453Z,13.10
2018-05-13T08:53:52.116Z,12.67
2018-05-13T08:56:18.011Z,12.30
2018-05-13T08:58:43.889Z,11.00
2018-05-13T09:01:09.737Z,11.50
2018-05-13T09:03:35.581Z,12.03
2018-05-13T09:06:01.445Z,13.03
2018-05-13T09:08:27.377Z,12.47
2018-05-13T09:10:53.149Z,14.13
2018-05-13T09:13:19.017Z,13.90
2018-05-13T09:15:44.865Z,12.33
2018-05-13T09:18:10.685Z,12.60
2018-05-13T09:20:36.631Z,12.07
2018-05-13T09:23:02.410Z,11.93
2018-05-13T09:25:28.251Z,12.20
2018-05-13T09:27:54.070Z,12.80
2018-05-13T09:30:19.929Z,13.17
2018-05-13T09:32:45.749Z,12.47
2018-05-13T09:35:11.621Z,12.97
2018-05-13T09:37:37.485Z,11.60
2018-05-13T09:40:03.444Z,14.50
2018-05-13T09:42:29.273Z,13.03
2018-05-13T09:44:55.087Z,10.83
2018-05-13T09:47:21.022Z,11.33
2018-05-13T09:49:46.842Z,11.20
2018-05-13T09:52:12.701Z,13.30
2018-05-13T09:54:38.544Z,11.30
2018-05-13T09:57:04.425Z,11.83
2018-05-13T09:59:30.278Z,11.47
2018-05-13T10:01:56.137Z,11.60
2018-05-13T10:04:21.976Z,11.43
2018-05-13T10:06:47.842Z,12.73
2018-05-13T10:09:13.688Z,11.70
2018-05-13T10:11:39.556Z,11.93
2018-05-13T10:14:05.424Z,11.60
2018-05-13T10:16:31.328Z,11.13
2018-05-13T10:18:57.129Z,11.47
2018-05-13T10:21:22.972Z,11.20
2018-05-13T10:23:48.828Z,10.83
2018-05-13T10:26:14.685Z,11.87
2018-05-13T10:28:40.561Z,10.13
2018-05-13T10:31:06.423Z,10.40
2018-05-13T10:33:32.283Z,10.40
2018-05-13T10:35:58.168Z,9.97
2018-05-13T10:38:24.025Z,12.00
2018-05-13T10:40:49.856Z,11.30
2018-05-13T10:43:15.695Z,9.27
2018-05-13T10:45:41.563Z,19.33
2018-05-13T10:48:07.425Z,12.00
2018-05-13T10:50:33.310Z,12.53
2018-05-13T10:52:59.180Z,10.10
2018-05-13T10:55:25.041Z,10.43
2018-05-13T10:57:50.902Z,10.50
2018-05-13T11:00:16.731Z,10.70
2018-05-13T11:02:42.609Z,9.40
2018-05-13T11:05:08.486Z,9.17
2018-05-13T11:07:34.336Z,10.07
2018-05-13T11:10:00.192Z,10.33
2018-05-13T11:12:26.030Z,10.93
2018-05-13T11:14:51.881Z,10.13
2018-05-13T11:17:17.801Z,10.77
2018-05-13T11:19:43.708Z,9.77
2018-05-13T11:22:09.545Z,9.87
2018-05-13T11:24:35.407Z,8.87
2018-05-13T11:27:01.297Z,9.47
2018-05-13T11:29:27.191Z,9.00
2018-05-13T11:31:53.011Z,8.63
2018-05-13T11:34:18.874Z,9.20
2018-05-13T11:36:45.373Z,9.13
2018-05-13T11:39:11.252Z,8.40
2018-05-13T11:41:37.099Z,8.07
2018-05-13T11:44:02.937Z,8.57
2018-05-13T11:46:28.803Z,8.70
2018-05-13T11:48:54.655Z,9.17
2018-05-13T11:51:20.529Z,8.03
2018-05-13T11:53:46.364Z,11.23
2018-05-13T11:56:12.222Z,8.10
2018-05-13T11:58:38.049Z,8.33
2018-05-13T12:01:03.921Z,7.73
2018-05-13T12:03:29.779Z,7.70
2018-05-13T12:05:55.660Z,7.23
2018-05-13T12:08:21.544Z,8.97
2018-05-13T12:10:47.422Z,7.37
2018-05-13T12:13:13.240Z,7.60
2018-05-13T12:15:39.104Z,8.10
2018-05-13T12:18:04.973Z,7.83
2018-05-13T12:20:30.860Z,8.00
2018-05-13T12:22:56.700Z,8.03
2018-05-13T12:25:22.552Z,8.60
2018-05-13T12:27:48.408Z,9.20
2018-05-13T12:30:14.273Z,7.83
2018-05-13T12:32:40.161Z,9.63
2018-05-13T12:35:06.057Z,7.80
2018-05-13T12:37:31.919Z,8.40
2018-05-13T12:39:57.773Z,7.77
2018-05-13T12:42:23.669Z,7.37
2018-05-13T12:44:49.553Z,10.17
2018-05-13T12:47:15.416Z,8.43
2018-05-13T12:49:41.284Z,8.47
2018-05-13T12:52:07.121Z,6.80
2018-05-13T12:54:32.986Z,8.10
2018-05-13T12:56:58.857Z,7.30
2018-05-13T12:59:24.713Z,8.10
2018-05-13T13:01:50.556Z,7.53
2018-05-13T13:04:23.276Z,8.30
2018-05-13T13:06:49.131Z,8.10
2018-05-13T13:09:14.976Z,8.93
2018-05-13T13:11:40.859Z,7.47
2018-05-13T13:14:06.748Z,8.63
2018-05-13T13:16:32.633Z,7.70
2018-05-13T13:18:58.493Z,8.30
2018-05-13T13:21:24.369Z,7.43
2018-05-13T13:23:50.237Z,9.00
2018-05-13T13:26:16.132Z,7.73
2018-05-13T13:28:41.983Z,8.30
2018-05-13T13:31:07.842Z,9.43
2018-05-13T13:33:33.720Z,7.70
2018-05-13T13:35:59.572Z,8.50
2018-05-13T13:38:25.453Z,7.97
2018-05-13T13:40:51.294Z,8.87
2018-05-13T13:43:17.145Z,9.10
2018-05-13T13:45:43.028Z,8.60
2018-05-13T13:48:08.910Z,9.07
2018-05-13T13:50:34.766Z,7.97
2018-05-13T13:53:00.619Z,8.63
2018-05-13T13:55:26.488Z,7.63
2018-05-13T13:57:52.404Z,7.33
2018-05-13T14:00:18.302Z,8.30
2018-05-13T14:02:44.148Z,7.67
2018-05-13T14:05:09.989Z,13.13
2018-05-13T14:07:35.827Z,7.57
2018-05-13T14:10:01.700Z,8.60
2018-05-13T14:12:27.542Z,8.53
2018-05-13T14:14:53.397Z,8.27
2018-05-13T14:17:19.256Z,7.10
2018-05-13T14:19:45.095Z,8.47
2018-05-13T14:22:10.988Z,7.63
2018-05-13T14:24:36.861Z,8.00
2018-05-13T14:27:02.788Z,8.00
2018-05-13T14:29:28.551Z,7.77
2018-05-13T14:31:54.388Z,7.77
2018-05-13T14:34:20.224Z,8.33
2018-05-13T14:36:46.092Z,6.73
2018-05-13T14:39:12.259Z,6.90
2018-05-13T14:41:37.791Z,7.43
2018-05-13T14:44:03.708Z,7.33
2018-05-13T14:46:29.594Z,7.27
2018-05-13T14:48:55.451Z,6.60
2018-05-13T14:51:21.330Z,7.10
2018-05-13T14:53:47.201Z,6.90
2018-05-13T14:56:13.051Z,6.90
2018-05-13T14:58:38.908Z,8.00
2018-05-13T15:01:04.765Z,8.47
2018-05-13T15:03:30.597Z,7.10
2018-05-13T15:05:56.464Z,6.07
2018-05-13T15:08:22.278Z,5.87
2018-05-13T15:10:48.167Z,6.97
2018-05-13T15:13:14.031Z,6.10
2018-05-13T15:15:39.909Z,7.03
2018-05-13T15:18:05.785Z,8.03
2018-05-13T15:20:31.636Z,8.03
2018-05-13T15:22:57.493Z,6.53
2018-05-13T15:25:23.329Z,7.53
2018-05-13T15:27:49.229Z,6.27
2018-05-13T15:30:15.092Z,6.80
2018-05-13T15:32:40.956Z,6.83
2018-05-13T15:35:06.814Z,6.07
2018-05-13T15:37:32.660Z,6.03
2018-05-13T15:39:58.557Z,6.73
2018-05-13T15:42:24.465Z,6.30
2018-05-13T15:44:50.329Z,5.87
2018-05-13T15:47:16.221Z,6.87
2018-05-13T15:49:42.087Z,5.30
2018-05-13T15:52:07.963Z,6.00
2018-05-13T15:54:33.845Z,5.50
2018-05-13T15:56:59.761Z,5.00
2018-05-13T15:59:25.662Z,5.53
2018-05-13T16:01:51.549Z,7.77
2018-05-13T16:04:17.424Z,5.90
2018-05-13T16:06:43.339Z,8.03
2018-05-13T16:09:09.180Z,6.20
2018-05-13T16:11:35.042Z,8.63
2018-05-13T16:14:00.889Z,6.90
2018-05-13T16:16:26.778Z,8.83
2018-05-13T16:18:53.698Z,6.87
2018-05-13T16:21:19.607Z,9.03
2018-05-13T16:23:45.433Z,6.03
2018-05-13T16:26:11.283Z,16.10
2018-05-13T16:28:37.154Z,12.67
2018-05-13T16:31:03.004Z,8.63
2018-05-13T16:33:28.921Z,14.17
2018-05-13T16:35:54.805Z,7.17
2018-05-13T16:38:21.586Z,6.50
2018-05-13T16:40:47.441Z,8.60
2018-05-13T16:43:13.322Z,7.33
2018-05-13T16:45:39.161Z,7.90
2018-05-13T16:48:05.040Z,7.60
2018-05-13T16:50:30.893Z,6.80
2018-05-13T16:52:56.726Z,9.70
2018-05-13T16:55:22.574Z,9.13
2018-05-13T16:57:48.422Z,7.80
2018-05-13T17:00:14.274Z,7.80
2018-05-13T17:02:40.164Z,7.20
2018-05-13T17:05:06.067Z,6.47
2018-05-13T17:07:31.913Z,7.60
2018-05-13T17:09:57.760Z,6.97
2018-05-13T17:12:23.614Z,7.20
2018-05-13T17:14:49.512Z,8.03
2018-05-13T17:17:15.510Z,7.97
2018-05-13T17:19:41.313Z,8.77
2018-05-13T17:22:07.191Z,8.70
2018-05-13T17:24:33.076Z,6.57
2018-05-13T17:26:58.949Z,5.77
2018-05-13T17:29:24.812Z,7.13
2018-05-13T17:31:50.698Z,7.10
2018-05-13T17:34:16.660Z,7.10
2018-05-13T17:36:42.489Z,7.20
2018-05-13T17:39:08.387Z,7.23
2018-05-13T17:41:34.287Z,6.60
2018-05-13T17:44:00.145Z,6.27
2018-05-13T17:46:26.075Z,6.67
2018-05-13T17:48:51.967Z,6.80
2018-05-13T17:51:17.852Z,7.60
2018-05-13T17:53:43.745Z,7.20
2018-05-13T17:56:09.592Z,6.90
2018-05-13T17:58:35.459Z,6.07
2018-05-13T18:01:01.323Z,6.60
2018-05-13T18:03:27.202Z,7.53
2018-05-13T18:05:53.149Z,7.27
2018-05-13T18:08:19.028Z,6.60
2018-05-13T18:10:44.952Z,6.83
2018-05-13T18:13:10.851Z,6.30
2018-05-13T18:15:36.750Z,7.03
2018-05-13T18:18:02.623Z,7.17
2018-05-13T18:20:28.496Z,6.80
2018-05-13T18:22:54.332Z,6.53
2018-05-13T18:25:20.222Z,8.00
2018-05-13T18:27:46.034Z,6.50
2018-05-13T18:30:11.936Z,6.20
2018-05-13T18:32:37.797Z,10.90
2018-05-13T18:35:03.815Z,7.00
2018-05-13T18:37:29.701Z,7.70
2018-05-13T18:39:55.569Z,6.30
2018-05-13T18:42:21.464Z,7.20
2018-05-13T18:44:47.277Z,6.97
2018-05-13T18:47:13.173Z,7.10
2018-05-13T18:49:39.028Z,7.70
2018-05-13T18:52:04.868Z,6.77
2018-05-13T18:54:30.826Z,10.10
2018-05-13T18:56:56.651Z,6.30
2018-05-13T18:59:22.552Z,6.63
2018-05-13T19:01:48.412Z,8.87
2018-05-13T19:04:14.294Z,7.10
2018-05-13T19:06:40.154Z,8.20
2018-05-13T19:09:06.006Z,8.23
2018-05-13T19:11:31.856Z,6.97
2018-05-13T19:13:57.732Z,5.87
2018-05-13T19:16:23.578Z,6.97
2018-05-13T19:18:49.469Z,5.73
2018-05-13T19:21:15.341Z,6.50
2018-05-13T19:23:41.230Z,6.13
2018-05-13T19:26:07.094Z,10.33
2018-05-13T19:28:32.989Z,6.67
2018-05-13T19:30:58.904Z,8.30
2018-05-13T19:33:24.713Z,6.90
2018-05-13T19:35:50.587Z,8.13
2018-05-13T19:38:16.444Z,8.00
2018-05-13T19:40:42.327Z,7.00
2018-05-13T19:43:08.196Z,9.03
2018-05-13T19:45:34.097Z,7.00
2018-05-13T19:48:00.016Z,9.23
2018-05-13T19:50:25.882Z,6.87
2018-05-13T19:52:51.738Z,8.73
2018-05-13T19:55:17.583Z,6.87
2018-05-13T19:57:43.445Z,6.60
2018-05-13T20:00:09.394Z,6.43
2018-05-13T20:02:35.262Z,6.53
2018-05-13T20:05:01.237Z,8.77
2018-05-13T20:07:27.088Z,6.27
2018-05-13T20:09:53.026Z,6.70
2018-05-13T20:12:18.819Z,7.10
2018-05-13T20:14:44.694Z,6.33
2018-05-13T20:17:10.560Z,7.17
2018-05-13T20:19:36.413Z,6.87
2018-05-13T20:22:02.331Z,9.90
2018-05-13T20:24:28.173Z,7.50
2018-05-13T20:26:54.036Z,7.17
2018-05-13T20:29:19.885Z,6.63
2018-05-13T20:31:45.740Z,6.43
2018-05-13T20:34:11.601Z,6.67
2018-05-13T20:36:37.547Z,6.03
2018-05-13T20:39:03.567Z,6.73
2018-05-13T20:41:29.489Z,8.90
2018-05-13T20:43:55.462Z,5.57
2018-05-13T20:46:21.318Z,6.70
2018-05-13T20:48:47.194Z,7.67
2018-05-13T20:51:13.056Z,10.60
2018-05-13T20:53:38.933Z,6.77
2018-05-13T20:56:04.814Z,6.70
2018-05-13T20:58:30.674Z,6.80
2018-05-13T21:00:56.565Z,8.27
2018-05-13T21:03:22.428Z,5.50
2018-05-13T21:05:48.368Z,7.90
2018-05-13T21:08:14.261Z,7.77
2018-05-13T21:10:40.165Z,6.23
2018-05-13T21:13:06.017Z,6.47
2018-05-13T21:15:31.882Z,6.57
2018-05-13T21:17:57.773Z,9.00
2018-05-13T21:20:23.718Z,7.63
2018-05-13T21:22:49.573Z,6.37
2018-05-13T21:25:15.405Z,6.40
2018-05-13T21:27:41.245Z,12.43
2018-05-13T21:30:07.228Z,8.23
2018-05-13T21:32:33.057Z,5.77
2018-05-13T21:34:58.907Z,7.03
2018-05-13T21:37:24.768Z,6.10
2018-05-13T21:39:50.618Z,7.10
2018-05-13T21:42:16.526Z,6.50
2018-05-13T21:44:42.368Z,6.57
2018-05-13T21:47:08.336Z,6.53
2018-05-13T21:49:34.097Z,7.23
2018-05-13T21:51:59.925Z,8.80
2018-05-13T21:54:25.782Z,6.90
2018-05-13T21:56:51.648Z,6.80
2018-05-13T21:59:17.530Z,6.47
2018-05-13T22:01:43.417Z,9.97
2018-05-13T22:04:09.285Z,6.43
2018-05-13T22:06:35.188Z,6.10
2018-05-13T22:09:01.664Z,8.70
2018-05-13T22:11:27.559Z,5.80
2018-05-13T22:13:53.421Z,6.03
2018-05-13T22:16:19.266Z,7.33
2018-05-13T22:18:45.085Z,7.10
2018-05-13T22:21:10.940Z,11.93
2018-05-13T22:23:36.779Z,6.03
2018-05-13T22:26:02.682Z,7.10
2018-05-13T22:28:28.529Z,11.47
2018-05-13T22:30:54.396Z,6.33
2018-05-13T22:33:20.272Z,6.87
2018-05-13T22:35:46.120Z,6.60
2018-05-13T22:38:11.988Z,9.77
2018-05-13T22:40:37.857Z,5.87
2018-05-13T22:43:04.563Z,6.90
2018-05-13T22:45:30.415Z,6.20
2018-05-13T22:47:56.313Z,7.90
2018-05-13T22:50:22.165Z,6.83
2018-05-13T22:52:48.054Z,7.20
2018-05-13T22:55:13.932Z,7.13
2018-05-13T22:57:39.765Z,5.13
2018-05-13T23:00:05.633Z,11.63
2018-05-13T23:02:31.527Z,6.83
2018-05-13T23:04:57.406Z,5.90
2018-05-13T23:07:23.246Z,6.13
2018-05-13T23:09:49.136Z,10.40
2018-05-13T23:12:15.005Z,12.83
2018-05-13T23:14:40.873Z,6.07
2018-05-13T23:17:06.714Z,6.83
2018-05-13T23:19:32.584Z,6.37
2018-05-13T23:21:58.458Z,6.10
2018-05-13T23:24:24.298Z,5.93
2018-05-13T23:26:50.148Z,8.47
2018-05-13T23:29:15.985Z,5.93
2018-05-13T23:31:41.836Z,5.37
2018-05-13T23:34:07.695Z,6.67
2018-05-13T23:36:33.564Z,6.20
2018-05-13T23:38:59.437Z,5.63
2018-05-13T23:41:25.313Z,7.50
2018-05-13T23:43:51.176Z,5.90
2018-05-13T23:46:17.034Z,6.03
2018-05-13T23:48:42.872Z,6.67
2018-05-13T23:51:08.739Z,5.77
2018-05-13T23:53:34.604Z,5.73
2018-05-13T23:56:00.449Z,5.37
2018-05-13T23:58:26.305Z,6.50
